createdAt,value
2023-03-12T00:01:35.196Z,101009.31
2023-03-12T00:06:38.989Z,101003.06
2023-03-12T00:11:44.112Z,100994.97
2023-03-12T00:16:47.935Z,100979.28
2023-03-12T00:21:51.642Z,100979.69
2023-03-12T00:26:56.717Z,100975.44
2023-03-12T00:32:00.590Z,100961.44
2023-03-12T00:37:04.366Z,100977.69
2023-03-12T00:42:09.497Z,100959.34
2023-03-12T00:47:14.430Z,100958.09
2023-03-12T00:52:18.282Z,100951.34
2023-03-12T00:57:23.517Z,100935.50
2023-03-12T01:02:27.524Z,100935.97
2023-03-12T01:07:32.775Z,100928.19
2023-03-12T01:12:37.904Z,100926.97
2023-03-12T01:17:41.626Z,100923.31
2023-03-12T01:22:45.406Z,100925.53
2023-03-12T01:27:50.501Z,100919.28
2023-03-12T01:32:54.320Z,100909.84
2023-03-12T01:37:58.041Z,100912.63
2023-03-12T01:43:24.867Z,100899.97
2023-03-12T01:48:30.205Z,100899.62
2023-03-12T01:53:34.937Z,100898.47
2023-03-12T01:58:46.305Z,100896.16
2023-03-12T02:03:54.841Z,100892.50
2023-03-12T02:09:02.326Z,100878.13
2023-03-12T02:14:08.055Z,100861.09
2023-03-12T02:19:20.540Z,100853.41
2023-03-12T02:24:34.678Z,100844.66
2023-03-12T02:29:43.041Z,100857.44
2023-03-12T02:34:48.120Z,100859.56
2023-03-12T02:39:58.845Z,100864.13
2023-03-12T02:45:04.909Z,100860.44
2023-03-12T02:50:10.202Z,100845.34
2023-03-12T02:55:14.002Z,100833.28
2023-03-12T03:00:20.785Z,100827.25
2023-03-12T03:05:25.093Z,100838.19
2023-03-12T03:10:28.913Z,100840.75
2023-03-12T03:15:34.418Z,100834.63
2023-03-12T03:20:38.464Z,100822.94
2023-03-12T03:25:42.210Z,100820.28
2023-03-12T03:30:47.638Z,100802.72
2023-03-12T03:35:51.802Z,100805.59
2023-03-12T03:40:56.166Z,100793.84
2023-03-12T03:46:03.002Z,100788.91
2023-03-12T03:51:09.303Z,100791.22
2023-03-12T03:56:15.882Z,100786.56
2023-03-12T04:01:22.205Z,100772.37
2023-03-12T04:06:26.224Z,100766.13
2023-03-12T04:11:30.163Z,100744.56
2023-03-12T04:16:35.520Z,100737.47
2023-03-12T04:21:39.588Z,100744.41
2023-03-12T04:26:44.129Z,100726.59
2023-03-12T04:31:49.953Z,100753.38
2023-03-12T04:36:53.867Z,100736.28
2023-03-12T04:41:58.666Z,100723.38
2023-03-12T04:47:05.153Z,100718.19
2023-03-12T04:52:09.677Z,100702.41
2023-03-12T04:57:13.596Z,100706.94
2023-03-12T05:02:19.698Z,100694.06
2023-03-12T05:07:23.762Z,100684.59
2023-03-12T05:12:27.959Z,100676.59
2023-03-12T05:17:33.123Z,100681.22
2023-03-12T05:22:37.407Z,100676.69
2023-03-12T05:27:41.311Z,100675.69
2023-03-12T05:32:47.108Z,100661.59
2023-03-12T05:37:50.972Z,100672.00
2023-03-12T05:42:54.868Z,100678.88
2023-03-12T05:48:01.529Z,100671.88
2023-03-12T05:53:05.535Z,100671.00
2023-03-12T05:58:09.658Z,100681.09
2023-03-12T06:03:15.706Z,100680.34
2023-03-12T06:08:19.764Z,100687.09
2023-03-12T06:13:24.031Z,100681.63
2023-03-12T06:18:29.220Z,100679.97
2023-03-12T06:23:33.222Z,100686.28
2023-03-12T06:28:37.210Z,100684.19
2023-03-12T06:33:42.795Z,100679.06
2023-03-12T06:38:46.636Z,100661.97
2023-03-12T06:43:50.548Z,100659.66
2023-03-12T06:48:56.015Z,100650.19
2023-03-12T06:54:01.124Z,100635.62
2023-03-12T06:59:05.119Z,100632.50
2023-03-12T07:04:10.240Z,100634.25
2023-03-12T07:09:13.900Z,100645.03
2023-03-12T07:14:17.602Z,100645.34
2023-03-12T07:19:22.693Z,100648.69
2023-03-12T07:24:26.462Z,100651.06
2023-03-12T07:29:30.278Z,100656.09
2023-03-12T07:34:35.650Z,100652.88
2023-03-12T07:39:39.627Z,100656.31
2023-03-12T07:44:43.405Z,100669.09
2023-03-12T07:49:48.668Z,100655.75
2023-03-12T07:54:54.213Z,100671.69
2023-03-12T07:59:58.066Z,100664.56
2023-03-12T08:05:03.283Z,100659.94
2023-03-12T08:10:09.457Z,100659.78
2023-03-12T08:15:13.722Z,100664.63
2023-03-12T08:20:19.063Z,100668.53
2023-03-12T08:25:24.692Z,100666.91
2023-03-12T08:30:30.310Z,100676.25
2023-03-12T08:35:35.507Z,100689.78
2023-03-12T08:40:39.379Z,100699.03
2023-03-12T08:45:43.201Z,100709.50
2023-03-12T08:50:48.352Z,100709.31
2023-03-12T08:55:54.623Z,100713.78
2023-03-12T09:00:59.249Z,100721.56
2023-03-12T09:06:06.529Z,100717.38
2023-03-12T09:11:11.897Z,100716.00
2023-03-12T09:16:15.880Z,100720.97
2023-03-12T09:21:20.966Z,100720.25
2023-03-12T09:26:25.472Z,100727.12
2023-03-12T09:31:29.288Z,100728.44
2023-03-12T09:36:34.559Z,100731.94
2023-03-12T09:41:40.821Z,100734.19
2023-03-12T09:46:48.226Z,100749.69
2023-03-12T09:51:56.736Z,100762.63
2023-03-12T09:57:05.405Z,100760.88
2023-03-12T10:02:43.356Z,100771.97
2023-03-12T10:07:54.029Z,100767.84
2023-03-12T10:13:15.464Z,100767.09
2023-03-12T10:18:30.755Z,100764.97
2023-03-12T10:23:50.802Z,100760.59
2023-03-12T10:28:58.941Z,100769.47
2023-03-12T10:34:04.359Z,100765.69
2023-03-12T10:39:15.765Z,100764.09
2023-03-12T10:44:23.360Z,100759.19
2023-03-12T10:49:30.746Z,100747.00
2023-03-12T10:54:38.412Z,100757.38
2023-03-12T10:59:44.174Z,100750.31
2023-03-12T11:04:52.494Z,100750.09
2023-03-12T11:10:18.279Z,100745.31
2023-03-12T11:15:24.800Z,100756.78
2023-03-12T11:20:30.317Z,100763.63
2023-03-12T11:25:35.461Z,100758.59
2023-03-12T11:30:41.705Z,100756.25
2023-03-12T11:35:55.839Z,100759.25
2023-03-12T11:41:13.051Z,100764.56
2023-03-12T11:46:28.230Z,100733.31
2023-03-12T11:51:45.850Z,100721.56
2023-03-12T11:56:54.699Z,100738.47
2023-03-12T12:02:13.928Z,100718.44
2023-03-12T12:07:30.165Z,100694.44
2023-03-12T12:12:52.677Z,100677.25
2023-03-12T12:18:03.519Z,100679.59
2023-03-12T12:23:18.511Z,100676.41
2023-03-12T12:28:38.002Z,100671.19
2023-03-12T12:33:57.109Z,100675.03
2023-03-12T12:39:06.121Z,100681.53
2023-03-12T12:44:16.034Z,100692.38
2023-03-12T12:49:25.308Z,100681.22
2023-03-12T12:54:36.092Z,100672.72
2023-03-12T12:59:44.042Z,100660.91
2023-03-12T13:04:48.911Z,100650.87
2023-03-12T13:09:54.010Z,100653.44
2023-03-12T13:15:00.855Z,100632.28
2023-03-12T13:20:15.779Z,100622.25
2023-03-12T13:25:31.432Z,100628.88
2023-03-12T13:30:50.947Z,100638.22
2023-03-12T13:36:07.890Z,100620.37
2023-03-12T13:41:31.883Z,100637.06
2023-03-12T13:46:45.338Z,100616.75
2023-03-12T13:52:02.352Z,100647.84
2023-03-12T13:57:13.128Z,100630.50
2023-03-12T14:02:25.367Z,100625.91
2023-03-12T14:07:51.931Z,100667.31
2023-03-12T14:13:07.668Z,100662.62
2023-03-12T14:18:19.184Z,100648.31
2023-03-12T14:23:26.376Z,100663.97
2023-03-12T14:28:31.985Z,100664.31
2023-03-12T14:33:50.463Z,100678.53
2023-03-12T14:39:01.133Z,100673.44
2023-03-12T14:44:07.108Z,100666.53
2023-03-12T14:49:21.106Z,100657.22
2023-03-12T14:54:27.322Z,100655.28
2023-03-12T14:59:33.054Z,100655.13
2023-03-12T15:04:39.551Z,100657.81
2023-03-12T15:09:45.184Z,100663.16
2023-03-12T15:14:51.643Z,100665.50
2023-03-12T15:19:57.303Z,100669.75
2023-03-12T15:25:03.869Z,100664.44
2023-03-12T15:30:24.109Z,100661.69
2023-03-12T15:35:29.502Z,100664.56
2023-03-12T15:40:33.557Z,100660.03
2023-03-12T15:45:39.580Z,100663.91
2023-03-12T15:50:46.611Z,100652.84
2023-03-12T15:55:59.750Z,100656.06
2023-03-12T16:01:12.024Z,100651.91
2023-03-12T16:06:19.834Z,100643.28
2023-03-12T16:11:26.913Z,100627.00
2023-03-12T16:16:30.969Z,100640.53
2023-03-12T16:21:36.139Z,100631.72
2023-03-12T16:26:47.385Z,100631.78
2023-03-12T16:31:54.354Z,100628.19
2023-03-12T16:37:00.052Z,100622.03
2023-03-12T16:42:06.145Z,100625.88
2023-03-12T16:47:12.868Z,100636.25
2023-03-12T16:52:19.797Z,100628.56
2023-03-12T16:57:29.077Z,100631.66
2023-03-12T17:02:33.145Z,100624.78
2023-03-12T17:07:38.348Z,100633.97
2023-03-12T17:12:42.398Z,100653.44
2023-03-12T17:17:46.174Z,100651.41
2023-03-12T17:22:51.743Z,100664.28
2023-03-12T17:27:56.470Z,100663.87
2023-03-12T17:33:03.670Z,100661.16
2023-03-12T17:38:09.182Z,100668.81
2023-03-12T17:43:13.569Z,100679.75
2023-03-12T17:48:17.436Z,100659.78
2023-03-12T17:53:22.555Z,100676.94
2023-03-12T17:58:26.333Z,100662.94
2023-03-12T18:03:30.147Z,100672.53
2023-03-12T18:08:35.341Z,100663.84
2023-03-12T18:13:40.902Z,100674.09
2023-03-12T18:18:44.720Z,100669.47
2023-03-12T18:23:49.771Z,100669.56
2023-03-12T18:28:53.893Z,100669.12
2023-03-12T18:33:57.576Z,100676.88
2023-03-12T18:39:04.623Z,100658.06
2023-03-12T18:44:08.385Z,100655.22
2023-03-12T18:49:13.116Z,100653.50
2023-03-12T18:54:18.326Z,100651.78
2023-03-12T18:59:22.070Z,100642.22
2023-03-12T19:04:26.046Z,100643.84
2023-03-12T19:09:31.219Z,100644.13
2023-03-12T19:14:34.986Z,100632.88
2023-03-12T19:19:38.982Z,100629.94
2023-03-12T19:24:44.497Z,100628.22
2023-03-12T19:29:48.405Z,100616.06
2023-03-12T19:34:52.437Z,100608.91
2023-03-12T19:39:57.533Z,100604.28
2023-03-12T19:45:01.387Z,100589.50
2023-03-12T19:50:05.772Z,100583.69
2023-03-12T19:55:11.978Z,100580.72
2023-03-12T20:00:16.564Z,100570.88
2023-03-12T20:05:20.356Z,100575.44
2023-03-12T20:10:25.915Z,100563.47
2023-03-12T20:15:29.800Z,100573.75
2023-03-12T20:20:33.607Z,100545.22
2023-03-12T20:25:41.624Z,100536.25
2023-03-12T20:30:45.453Z,100526.69
2023-03-12T20:35:50.541Z,100519.41
2023-03-12T20:40:55.721Z,100515.84
2023-03-12T20:45:59.593Z,100509.94
2023-03-12T20:51:03.693Z,100496.69
2023-03-12T20:56:09.805Z,100496.75
2023-03-12T21:01:13.573Z,100490.78
2023-03-12T21:06:17.493Z,100476.06
2023-03-12T21:11:22.546Z,100483.03
2023-03-12T21:16:26.301Z,100467.87
2023-03-12T21:21:30.487Z,100454.31
2023-03-12T21:26:35.863Z,100458.84
2023-03-12T21:31:39.866Z,100449.56
2023-03-12T21:36:43.671Z,100435.12
2023-03-12T21:41:48.882Z,100433.44
2023-03-12T21:46:52.903Z,100425.78
2023-03-12T21:51:57.473Z,100407.81
2023-03-12T21:57:03.364Z,100392.53
2023-03-12T22:02:07.229Z,100391.19
2023-03-12T22:07:10.908Z,100376.47
2023-03-12T22:12:15.925Z,100370.66
2023-03-12T22:17:19.719Z,100356.97
2023-03-12T22:22:23.455Z,100352.56
2023-03-12T22:27:28.792Z,100347.41
2023-03-12T22:32:33.195Z,100322.53
2023-03-12T22:37:36.960Z,100315.44
2023-03-12T22:42:42.016Z,100307.50
2023-03-12T22:47:46.573Z,100310.78
2023-03-12T22:52:50.469Z,100306.38
2023-03-12T22:57:55.550Z,100298.59
2023-03-12T23:02:59.252Z,100287.38
2023-03-12T23:08:02.940Z,100278.00
2023-03-12T23:13:09.380Z,100274.47
2023-03-12T23:18:13.140Z,100258.88
2023-03-12T23:23:16.872Z,100244.91
2023-03-12T23:28:22.015Z,100240.63
2023-03-12T23:33:26.305Z,100212.12
2023-03-12T23:38:30.945Z,100213.34
2023-03-12T23:43:36.256Z,100199.50
2023-03-12T23:48:41.123Z,100184.69
2023-03-12T23:53:47.548Z,100174.22
2023-03-12T23:58:52.836Z,100165.41
